Time;durP1;ratioP1;P1;durP2;ratioP2;P2;SDS_P1;SDS_P2;PMS_P1;PMS_P2;Temp;Humidity;BMP_temperature;BMP_pressure;BME280_temperature;BME280_humidity;BME280_pressure;Samples;Min_cycle;Max_cycle;Signal;HPM_P1;HPM_P2
2022/04/08 00:00:30;;;;;;;8.95;4.85;;;;;;;15.04;52.91;98056.81;6273880;22;20520;-91
2022/04/08 00:02:56;;;;;;;9.50;4.75;;;;;;;14.86;52.70;98029.47;6273736;22;20106;-91
2022/04/08 00:05:21;;;;;;;12.02;4.63;;;;;;;14.17;52.24;97938.53;6274166;22;19995;-90
2022/04/08 00:07:47;;;;;;;9.48;4.18;;;;;;;15.17;52.38;98075.09;6273923;22;20004;-91
2022/04/08 00:10:13;;;;;;;7.65;4.05;;;;;;;14.90;52.39;98037.75;6273856;22;20027;-90
2022/04/08 00:12:39;;;;;;;7.95;3.88;;;;;;;14.65;51.94;97998.28;6273671;22;20468;-91
2022/04/08 00:15:05;;;;;;;6.65;3.60;;;;;;;15.25;51.82;98101.28;6273656;22;20007;-90
2022/04/08 00:17:30;;;;;;;9.88;4.55;;;;;;;14.68;51.91;98003.09;6273579;22;20403;-91
2022/04/08 00:19:56;;;;;;;9.27;3.60;;;;;;;15.09;51.94;98071.00;6273799;22;20031;-89
2022/04/08 00:22:23;;;;;;;8.93;4.10;;;;;;;14.69;52.10;98010.03;6273672;22;20019;-90
2022/04/08 00:24:50;;;;;;;7.95;4.22;;;;;;;14.66;51.67;97999.88;6273498;22;20083;-90
2022/04/08 00:27:15;;;;;;;7.45;3.92;;;;;;;15.41;52.00;98135.03;6273475;22;20014;-90
2022/04/08 00:29:41;;;;;;;8.52;3.80;;;;;;;15.12;51.65;98080.34;6274423;22;20431;-91
2022/04/08 00:32:06;;;;;;;11.80;4.82;;;;;;;15.38;51.34;98138.16;6273757;22;20448;-91
2022/04/08 00:34:32;;;;;;;6.68;4.20;;;;;;;14.12;51.53;97943.75;6275213;22;19999;-90
2022/04/08 00:36:57;;;;;;;7.78;4.13;;;;;;;15.11;51.86;98119.41;6275759;22;19996;-91
2022/04/08 00:39:23;;;;;;;10.30;4.88;;;;;;;14.99;51.72;98113.38;6277191;22;19995;-90
2022/04/08 00:41:49;;;;;;;9.10;4.72;;;;;;;14.59;51.67;98037.22;6275876;22;20000;-90
2022/04/08 00:44:14;;;;;;;9.95;4.22;;;;;;;15.04;51.92;98131.25;6277144;22;19999;-90
2022/04/08 00:46:43;;;;;;;10.60;4.80;;;;;;;14.44;51.82;98026.34;6275638;22;20065;-90
2022/04/08 00:49:08;;;;;;;8.07;4.55;;;;;;;14.90;51.78;98105.00;6276042;22;20023;-90
2022/04/08 00:51:34;;;;;;;6.72;4.05;;;;;;;14.56;51.61;98052.84;6275986;22;19995;-91
2022/04/08 00:54:03;;;;;;;10.23;4.80;;;;;;;14.92;51.62;98123.34;6275965;22;20006;-90
2022/04/08 00:56:30;;;;;;;11.02;5.07;;;;;;;14.07;51.84;98009.97;6276014;22;20022;-90
2022/04/08 00:58:56;;;;;;;8.52;4.20;;;;;;;14.74;51.79;98092.47;6275511;22;20003;-90
2022/04/08 01:01:23;;;;;;;9.30;4.13;;;;;;;15.24;51.51;98166.94;6275617;22;20004;-90
2022/04/08 01:03:52;;;;;;;10.07;4.78;;;;;;;14.58;51.66;98072.81;6277147;22;19996;-90
2022/04/08 01:06:21;;;;;;;11.30;4.57;;;;;;;15.24;51.68;98177.59;6275716;22;19999;-90
2022/04/08 01:08:49;;;;;;;7.47;4.15;;;;;;;15.17;51.69;98181.44;6275664;22;19996;-91
2022/04/08 01:11:15;;;;;;;11.43;4.50;;;;;;;14.11;51.94;98047.47;6275811;22;20000;-90
2022/04/08 01:13:41;;;;;;;9.65;4.20;;;;;;;14.11;51.99;98058.09;6275577;22;19995;-90
2022/04/08 01:16:07;;;;;;;9.52;4.60;;;;;;;14.57;52.01;98134.94;6275910;22;20034;-91
2022/04/08 01:18:33;;;;;;;11.27;4.38;;;;;;;14.73;51.76;98156.47;6275686;22;20027;-91
2022/04/08 01:21:02;;;;;;;7.80;4.28;;;;;;;14.67;52.25;98142.28;6275941;22;20457;-91
2022/04/08 01:23:29;;;;;;;6.75;3.95;;;;;;;14.90;52.06;98186.56;6275840;22;20053;-90
2022/04/08 01:25:54;;;;;;;8.48;3.50;;;;;;;14.33;51.81;98093.56;6275720;22;20384;-90
2022/04/08 01:28:20;;;;;;;6.18;3.80;;;;;;;14.53;51.74;98123.19;6276469;22;20064;-90
2022/04/08 01:30:45;;;;;;;7.18;3.30;;;;;;;14.50;51.67;98107.72;6275491;22;20049;-90
2022/04/08 01:33:11;;;;;;;13.15;4.25;;;;;;;14.08;51.34;98059.38;6275489;22;20083;-91
2022/04/08 01:35:36;;;;;;;7.47;3.45;;;;;;;14.91;51.29;98177.56;6275470;22;20071;-89
2022/04/08 01:38:02;;;;;;;9.35;3.95;;;;;;;14.15;51.20;98043.31;6275127;22;20098;-90
2022/04/08 01:40:27;;;;;;;9.32;3.58;;;;;;;14.47;51.36;98094.91;6275495;22;20361;-90
2022/04/08 01:42:53;;;;;;;10.80;3.97;;;;;;;14.92;51.30;98155.25;6275264;22;20404;-90
2022/04/08 01:45:18;;;;;;;6.57;3.67;;;;;;;14.89;51.46;98155.72;6275029;22;19991;-90
2022/04/08 01:47:44;;;;;;;6.90;3.25;;;;;;;14.47;51.04;98086.16;6275180;22;20000;-91
2022/04/08 01:50:10;;;;;;;6.53;3.40;;;;;;;14.47;51.20;98076.34;6275137;22;20095;-90
2022/04/08 01:52:35;;;;;;;5.20;3.08;;;;;;;13.77;50.99;98017.38;6275439;22;20109;-92
2022/04/08 01:55:01;;;;;;;4.47;2.75;;;;;;;14.56;50.74;98104.13;6275086;22;20423;-90
2022/04/08 01:57:29;;;;;;;4.25;2.85;;;;;;;14.08;50.97;98029.38;6275077;22;20006;-92
2022/04/08 01:59:54;;;;;;;9.75;3.47;;;;;;;15.19;50.82;98182.81;6274896;22;19996;-92
2022/04/08 02:02:20;;;;;;;4.63;2.20;;;;;;;14.84;51.11;98140.47;6276477;22;20019;-92
2022/04/08 02:04:45;;;;;;;5.63;3.05;;;;;;;14.67;51.06;98120.22;6275310;22;20005;-91
2022/04/08 02:07:11;;;;;;;6.88;2.85;;;;;;;15.08;50.82;98162.44;6274914;22;20004;-93
2022/04/08 02:09:39;;;;;;;5.63;2.45;;;;;;;15.18;51.04;98194.50;6274822;22;20027;-92
2022/04/08 02:12:04;;;;;;;4.88;2.33;;;;;;;15.12;50.93;98187.47;6274880;22;20058;-92
2022/04/08 02:14:30;;;;;;;7.60;3.03;;;;;;;14.75;50.99;98138.44;6300984;22;20399;-92
2022/04/08 02:16:55;;;;;;;5.40;2.80;;;;;;;15.12;51.40;98200.78;6275004;22;20509;-92
2022/04/08 02:19:21;;;;;;;5.65;2.47;;;;;;;14.25;51.15;98083.34;6274927;22;20360;-92
2022/04/08 02:21:48;;;;;;;5.03;3.33;;;;;;;14.40;51.39;98131.41;6274973;22;19999;-93
2022/04/08 02:24:13;;;;;;;7.55;4.35;;;;;;;14.35;51.49;98101.28;6274774;22;20003;-92
2022/04/08 02:26:39;;;;;;;6.03;3.90;;;;;;;14.45;51.64;98117.44;6301018;22;20084;-93
2022/04/08 02:29:05;;;;;;;7.95;4.25;;;;;;;14.82;51.54;98168.31;6274945;22;20350;-92
2022/04/08 02:31:30;;;;;;;10.45;4.75;;;;;;;14.41;51.24;98106.47;6274747;22;20357;-92
2022/04/08 02:33:56;;;;;;;5.90;3.72;;;;;;;14.55;51.43;98149.50;6274917;22;20079;-94
2022/04/08 02:36:21;;;;;;;6.53;3.40;;;;;;;14.52;51.76;98118.09;6275456;22;20074;-94
2022/04/08 02:38:46;;;;;;;7.63;4.03;;;;;;;14.55;51.14;98136.22;6274990;22;20004;-92
2022/04/08 02:41:12;;;;;;;8.20;4.10;;;;;;;15.08;51.08;98234.19;6274622;22;19995;-93
2022/04/08 02:43:37;;;;;;;6.30;3.50;;;;;;;14.21;50.77;98084.84;6275183;22;20516;-92
2022/04/08 02:46:03;;;;;;;5.68;3.63;;;;;;;13.99;51.14;98047.50;6275165;22;20079;-92
2022/04/08 02:48:28;;;;;;;6.28;3.50;;;;;;;15.10;50.89;98216.16;6275066;22;20000;-92
2022/04/08 02:50:54;;;;;;;8.43;3.67;;;;;;;14.75;50.83;98159.69;6275108;22;20007;-93
2022/04/08 02:53:19;;;;;;;6.47;2.92;;;;;;;14.54;50.82;98143.38;6275194;22;20490;-92
2022/04/08 02:55:44;;;;;;;6.57;2.75;;;;;;;14.61;50.65;98144.03;6275802;22;19992;-92
2022/04/08 02:58:10;;;;;;;6.32;2.50;;;;;;;13.98;50.52;98059.16;6274590;22;20023;-93
2022/04/08 03:00:35;;;;;;;3.75;3.05;;;;;;;14.96;50.35;98228.13;6274833;22;20345;-92
2022/04/08 03:03:01;;;;;;;9.32;3.45;;;;;;;14.60;50.66;98154.91;6274781;22;20484;-92
2022/04/08 03:05:26;;;;;;;3.88;2.60;;;;;;;15.09;50.44;98259.75;6274723;22;20087;-93
2022/04/08 03:07:52;;;;;;;5.57;2.85;;;;;;;14.26;50.45;98109.63;6274645;22;20023;-92
2022/04/08 03:10:17;;;;;;;11.07;3.20;;;;;;;14.08;50.42;98098.38;6275012;22;20071;-92
2022/04/08 03:12:43;;;;;;;8.75;3.83;;;;;;;14.04;50.53;98105.19;6274781;22;20121;-92
2022/04/08 03:15:08;;;;;;;6.25;3.42;;;;;;;14.96;50.51;98243.28;6274386;22;20038;-94
2022/04/08 03:17:36;;;;;;;5.78;3.15;;;;;;;14.73;50.24;98206.94;6274465;22;20016;-92
2022/04/08 03:20:02;;;;;;;5.30;2.47;;;;;;;14.91;49.83;98244.00;6274819;22;20464;-92
2022/04/08 03:22:27;;;;;;;6.13;2.33;;;;;;;14.15;49.35;98129.06;6274836;22;20000;-92
2022/04/08 03:24:54;;;;;;;3.35;2.50;;;;;;;14.06;48.76;98156.19;6273523;22;19999;-87
2022/04/08 03:27:20;;;;;;;4.63;2.20;;;;;;;14.89;48.49;98262.81;6273087;22;20415;-87
2022/04/08 03:29:45;;;;;;;3.67;2.10;;;;;;;14.93;47.98;98263.97;6274634;22;19996;-87
2022/04/08 03:32:11;;;;;;;3.33;2.15;;;;;;;14.21;47.72;98156.53;6273981;22;20019;-87
2022/04/08 03:34:37;;;;;;;5.20;2.58;;;;;;;14.32;47.53;98193.66;6274659;22;20007;-87
2022/04/08 03:37:03;;;;;;;2.72;2.20;;;;;;;14.35;47.20;98192.38;6272924;22;20429;-87
2022/04/08 03:39:28;;;;;;;4.82;2.53;;;;;;;13.77;47.20;98083.69;6272941;22;20496;-87
2022/04/08 03:41:54;;;;;;;2.85;2.40;;;;;;;14.58;47.33;98210.13;6273440;22;20003;-87
2022/04/08 03:44:20;;;;;;;4.63;2.85;;;;;;;13.92;46.79;98124.59;6298767;22;20007;-87
2022/04/08 03:46:46;;;;;;;5.38;2.45;;;;;;;14.29;46.59;98178.19;6299072;22;20007;-87
2022/04/08 03:49:15;;;;;;;3.95;2.78;;;;;;;14.53;46.56;98200.19;6273200;22;20086;-87
2022/04/08 03:51:41;;;;;;;5.05;2.55;;;;;;;14.72;46.45;98226.59;6273224;22;20000;-87
2022/04/08 03:54:07;;;;;;;3.88;2.63;;;;;;;15.09;46.33;98269.56;6273158;22;19999;-87
2022/04/08 03:56:33;;;;;;;3.78;2.42;;;;;;;14.73;46.17;98217.56;6273375;22;19991;-87
2022/04/08 03:58:59;;;;;;;6.72;2.40;;;;;;;14.76;46.17;98231.19;6273126;22;20357;-87
2022/04/08 04:01:25;;;;;;;3.58;2.20;;;;;;;14.80;46.13;98253.59;6273021;22;20004;-87
2022/04/08 04:03:50;;;;;;;3.65;2.13;;;;;;;14.42;46.07;98203.69;6273922;22;20012;-86
2022/04/08 04:06:15;;;;;;;3.67;2.20;;;;;;;14.21;46.04;98170.59;6299209;22;20059;-86
2022/04/08 04:08:41;;;;;;;3.22;1.95;;;;;;;14.33;45.83;98165.25;6299613;22;19987;-86
2022/04/08 04:11:06;;;;;;;4.25;2.42;;;;;;;14.89;45.82;98262.03;6300844;22;20002;-86
2022/04/08 04:13:32;;;;;;;3.45;2.00;;;;;;;14.27;45.88;98179.47;6300529;22;20075;-87
2022/04/08 04:15:57;;;;;;;2.38;2.08;;;;;;;14.19;45.90;98148.78;6285517;22;20082;-87
2022/04/08 04:18:22;;;;;;;2.33;2.10;;;;;;;14.66;45.67;98243.47;6279993;22;20079;-87
2022/04/08 04:20:48;;;;;;;3.97;2.05;;;;;;;14.28;45.75;98181.91;6279904;22;20436;-87
2022/04/08 04:23:13;;;;;;;4.82;2.90;;;;;;;14.60;45.45;98221.31;6275805;22;20408;-91
2022/04/08 04:25:39;;;;;;;3.75;2.45;;;;;;;14.50;45.77;98226.44;6284479;22;20042;-91
2022/04/08 04:28:04;;;;;;;3.35;2.70;;;;;;;12.95;45.57;97975.06;6276967;22;20003;-92
2022/04/08 04:30:30;;;;;;;4.70;2.60;;;;;;;14.48;45.53;98217.88;6275732;22;20356;-92
2022/04/08 04:32:56;;;;;;;3.97;2.50;;;;;;;13.93;45.70;98147.44;6275073;22;20512;-92
2022/04/08 04:35:22;;;;;;;4.22;2.70;;;;;;;14.53;45.32;98231.28;6299690;22;20486;-91
2022/04/08 04:37:48;;;;;;;3.70;2.25;;;;;;;15.06;45.36;98304.59;6273987;22;20023;-93
2022/04/08 04:40:13;;;;;;;4.15;2.33;;;;;;;14.31;45.69;98207.16;6274303;22;19996;-92
2022/04/08 04:42:39;;;;;;;4.05;2.42;;;;;;;14.20;45.60;98203.50;6274229;22;20361;-91
2022/04/08 04:45:07;;;;;;;6.18;2.63;;;;;;;14.49;45.42;98251.38;6274816;22;20024;-92
2022/04/08 04:47:32;;;;;;;2.65;2.30;;;;;;;14.98;45.62;98310.28;6273892;22;20596;-92
2022/04/08 04:49:58;;;;;;;4.45;2.70;;;;;;;14.57;45.39;98251.00;6273833;22;20096;-93
2022/04/08 04:52:23;;;;;;;3.30;2.47;;;;;;;14.30;45.42;98232.91;6273935;22;20039;-92
2022/04/08 04:54:48;;;;;;;5.10;2.65;;;;;;;14.21;45.13;98197.16;6273881;22;20078;-93
2022/04/08 04:57:14;;;;;;;4.55;2.47;;;;;;;15.04;45.27;98334.06;6274116;22;20441;-92
2022/04/08 04:59:39;;;;;;;3.92;3.05;;;;;;;15.22;45.54;98359.69;6274376;22;20000;-91
2022/04/08 05:02:05;;;;;;;4.28;2.40;;;;;;;15.11;45.36;98328.63;6289063;22;20000;-92
2022/04/08 05:04:30;;;;;;;3.42;2.25;;;;;;;14.86;45.12;98294.34;6275339;22;20003;-92
2022/04/08 05:06:55;;;;;;;6.45;2.10;;;;;;;14.47;45.23;98237.53;6275265;22;20420;-91
2022/04/08 05:09:21;;;;;;;3.90;2.58;;;;;;;15.22;45.25;98371.13;6276770;22;20008;-91
2022/04/08 05:11:46;;;;;;;7.72;2.72;;;;;;;14.72;45.21;98285.03;6302914;22;20037;-93
2022/04/08 05:14:12;;;;;;;10.23;3.13;;;;;;;13.90;45.09;98202.81;6295466;22;20069;-93
2022/04/08 05:16:37;;;;;;;8.55;2.47;;;;;;;15.03;44.74;98337.78;6273394;22;20016;-93
2022/04/08 05:19:02;;;;;;;6.70;2.88;;;;;;;14.94;44.32;98301.97;6273400;22;20006;-91
2022/04/08 05:21:31;;;;;;;8.60;2.63;;;;;;;15.62;44.48;98428.84;6276611;22;20377;-93
2022/04/08 05:23:56;;;;;;;6.53;2.33;;;;;;;14.86;44.14;98268.63;6275263;22;20007;-92
2022/04/08 05:26:22;;;;;;;5.40;2.60;;;;;;;15.63;43.95;98393.22;6276336;22;19999;-93
2022/04/08 05:28:48;;;;;;;9.27;2.38;;;;;;;13.43;43.90;98069.44;6277800;22;20004;-92
2022/04/08 05:31:13;;;;;;;4.25;1.95;;;;;;;15.69;43.74;98410.88;6299710;22;20046;-91
2022/04/08 05:33:39;;;;;;;4.03;1.90;;;;;;;15.07;43.61;98320.31;6297936;22;20015;-92
2022/04/08 05:36:05;;;;;;;3.47;1.88;;;;;;;15.74;43.70;98400.34;6290615;22;20075;-93
2022/04/08 05:38:30;;;;;;;3.13;2.40;;;;;;;14.56;43.47;98230.81;6275640;22;20046;-92
2022/04/08 05:40:56;;;;;;;4.38;2.20;;;;;;;14.82;43.35;98298.53;6276651;22;20438;-93
2022/04/08 05:43:21;;;;;;;5.65;2.20;;;;;;;15.51;43.67;98381.75;6275505;22;20360;-93
2022/04/08 05:45:47;;;;;;;6.38;2.60;;;;;;;15.40;43.25;98378.09;6275794;22;19999;-91
2022/04/08 05:48:12;;;;;;;6.75;2.67;;;;;;;15.44;43.19;98365.13;6274706;22;19999;-92
2022/04/08 05:50:38;;;;;;;3.97;2.13;;;;;;;15.39;42.84;98360.53;6276621;22;20074;-91
2022/04/08 05:53:03;;;;;;;5.03;2.10;;;;;;;15.51;42.62;98393.22;6274953;22;20441;-93
2022/04/08 05:55:29;;;;;;;3.97;2.20;;;;;;;15.85;42.42;98443.91;6274876;22;20353;-90
2022/04/08 05:57:56;;;;;;;2.35;1.60;;;;;;;15.57;42.67;98386.97;6275041;22;20008;-91
2022/04/08 06:00:23;;;;;;;2.40;1.80;;;;;;;15.73;42.55;98405.91;6275496;22;20508;-90
2022/04/08 06:02:49;;;;;;;3.63;1.80;;;;;;;16.17;42.53;98484.16;6276249;22;20015;-89
2022/04/08 06:05:18;;;;;;;2.38;1.65;;;;;;;15.94;42.17;98442.47;6277212;22;19996;-89
2022/04/08 06:07:51;;;;;;;4.32;2.00;;;;;;;16.23;41.97;98509.00;6275917;22;20419;-90
2022/04/08 06:10:22;;;;;;;3.80;1.80;;;;;;;16.32;41.94;98515.56;6277045;22;20056;-90
2022/04/08 06:12:55;;;;;;;3.53;1.88;;;;;;;16.00;41.42;98451.38;6275263;22;20010;-90
2022/04/08 06:15:21;;;;;;;6.47;2.13;;;;;;;16.21;41.19;98482.63;6275490;22;20037;-91
2022/04/08 06:17:47;;;;;;;2.60;1.83;;;;;;;15.97;41.21;98435.88;6274883;22;19994;-89
2022/04/08 06:20:16;;;;;;;2.33;1.77;;;;;;;16.19;40.98;98485.53;6275174;22;20407;-91
2022/04/08 06:22:41;;;;;;;3.08;2.17;;;;;;;16.50;40.95;98508.19;6275412;22;20453;-89
2022/04/08 06:25:21;;;;;;;3.78;2.05;;;;;;;16.12;40.81;98452.91;6276046;22;20084;-88
2022/04/08 06:28:03;;;;;;;5.03;2.22;;;;;;;16.41;40.74;98482.19;6274748;22;20007;-88
2022/04/08 06:30:29;;;;;;;4.80;2.53;;;;;;;16.47;40.95;98491.88;6273359;22;19999;-89
2022/04/08 06:32:55;;;;;;;2.13;1.80;;;;;;;16.10;40.67;98441.69;6273028;22;20003;-90
2022/04/08 06:35:21;;;;;;;4.93;2.00;;;;;;;16.39;40.50;98492.28;6273570;22;20010;-90
2022/04/08 06:37:46;;;;;;;3.45;2.05;;;;;;;16.17;40.75;98433.56;6272718;22;20070;-89
2022/04/08 06:40:12;;;;;;;4.45;2.45;;;;;;;16.91;40.25;98524.03;6273351;22;19996;-89
2022/04/08 06:42:38;;;;;;;6.10;2.22;;;;;;;16.78;40.25;98536.66;6273942;22;20011;-90
2022/04/08 06:45:07;;;;;;;2.10;1.60;;;;;;;16.33;40.04;98421.28;6274401;22;20078;-91
2022/04/08 06:47:32;;;;;;;2.65;2.08;;;;;;;16.79;39.95;98526.78;6273241;22;20010;-91
2022/04/08 06:49:58;;;;;;;2.50;2.00;;;;;;;16.77;39.76;98513.72;6274319;22;20003;-91
2022/04/08 06:52:23;;;;;;;6.30;2.10;;;;;;;15.63;39.12;98315.25;6273620;22;20004;-92
2022/04/08 06:54:49;;;;;;;2.10;1.60;;;;;;;16.23;38.84;98379.31;6299602;22;20031;-89
2022/04/08 06:57:14;;;;;;;5.18;2.30;;;;;;;17.16;38.70;98521.78;6273991;22;19992;-90
2022/04/08 06:59:41;;;;;;;4.95;1.73;;;;;;;17.10;38.37;98498.75;6274111;22;20078;-92
2022/04/08 07:02:07;;;;;;;6.90;2.17;;;;;;;17.56;38.45;98566.06;6273036;22;20038;-90
2022/04/08 07:04:33;;;;;;;3.65;2.25;;;;;;;17.60;37.87;98553.84;6273867;22;19996;-89
2022/04/08 07:06:58;;;;;;;2.75;1.58;;;;;;;17.14;37.31;98498.00;6274749;22;20010;-91
2022/04/08 07:09:24;;;;;;;2.63;1.70;;;;;;;17.47;37.34;98550.47;6275552;22;20000;-90
2022/04/08 07:11:49;;;;;;;4.32;2.33;;;;;;;16.82;37.41;98443.66;6272788;22;20006;-90
2022/04/08 07:14:15;;;;;;;2.63;1.52;;;;;;;17.87;37.46;98597.50;6274355;22;20000;-89
2022/04/08 07:16:43;;;;;;;2.47;1.92;;;;;;;17.96;36.49;98600.53;6273225;22;19998;-87
2022/04/08 07:19:10;;;;;;;2.10;1.40;;;;;;;16.86;36.38;98402.13;6273062;22;20075;-90
2022/04/08 07:21:35;;;;;;;3.17;1.92;;;;;;;17.61;36.38;98524.25;6272763;22;20011;-90
2022/04/08 07:24:01;;;;;;;2.75;1.92;;;;;;;16.76;36.33;98391.34;6273397;22;20043;-90
2022/04/08 07:26:26;;;;;;;3.35;1.90;;;;;;;17.47;36.14;98475.75;6272822;22;20004;-90
2022/04/08 07:28:52;;;;;;;4.47;2.00;;;;;;;17.48;36.18;98490.72;6273157;22;20055;-91
2022/04/08 07:31:17;;;;;;;2.53;2.00;;;;;;;17.67;36.00;98485.91;6273758;22;20026;-90
2022/04/08 07:33:43;;;;;;;3.75;1.60;;;;;;;17.90;35.81;98532.91;6273951;22;20141;-90
2022/04/08 07:36:11;;;;;;;5.50;2.30;;;;;;;17.73;36.06;98495.59;6273103;22;20445;-89
2022/04/08 07:38:36;;;;;;;3.95;2.20;;;;;;;18.22;35.66;98565.03;6274641;22;20002;-90
2022/04/08 07:41:02;;;;;;;3.47;1.50;;;;;;;17.57;35.57;98451.06;6273825;22;20027;-91
2022/04/08 07:43:27;;;;;;;4.68;1.65;;;;;;;17.66;35.42;98478.09;6274156;22;20010;-91
2022/04/08 07:45:53;;;;;;;3.10;1.77;;;;;;;18.63;35.42;98594.91;6274014;22;20364;-91
2022/04/08 07:48:19;;;;;;;4.47;1.90;;;;;;;18.32;35.27;98533.09;6273656;22;20377;-90
2022/04/08 07:50:44;;;;;;;1.52;1.42;;;;;;;18.55;34.79;98550.66;6273645;22;20424;-90
2022/04/08 07:53:10;;;;;;;3.22;2.15;;;;;;;18.64;34.78;98565.25;6273385;22;20007;-88
2022/04/08 07:55:35;;;;;;;3.55;1.90;;;;;;;18.09;34.71;98510.16;6275050;22;20069;-88
2022/04/08 07:58:01;;;;;;;3.65;1.95;;;;;;;19.03;34.43;98603.28;6274624;22;20077;-89
2022/04/08 08:00:28;;;;;;;4.57;1.65;;;;;;;18.66;34.45;98536.38;6273042;22;20437;-89
2022/04/08 08:02:54;;;;;;;2.90;2.05;;;;;;;19.19;34.47;98603.41;6272634;22;20015;-89
2022/04/08 08:05:21;;;;;;;3.45;1.90;;;;;;;18.93;34.30;98530.97;6272962;22;20045;-88
2022/04/08 08:07:57;;;;;;;4.85;1.95;;;;;;;18.66;34.03;98487.47;6272801;22;20003;-90
2022/04/08 08:10:24;;;;;;;2.88;2.30;;;;;;;18.81;33.81;98514.31;6273008;22;20117;-89
2022/04/08 08:12:50;;;;;;;3.35;2.30;;;;;;;18.76;33.89;98482.19;6272944;22;20004;-88
2022/04/08 08:15:18;;;;;;;2.80;2.30;;;;;;;19.26;33.67;98566.50;6274477;22;20046;-89
2022/04/08 08:17:44;;;;;;;2.03;1.70;;;;;;;19.01;33.81;98519.00;6273665;22;20000;-89
2022/04/08 08:20:11;;;;;;;2.13;1.90;;;;;;;19.14;33.56;98513.19;6298906;22;19996;-91
2022/04/08 08:22:37;;;;;;;3.78;2.30;;;;;;;19.48;33.37;98564.53;6298599;22;20405;-90
2022/04/08 08:25:03;;;;;;;5.68;2.22;;;;;;;19.25;33.42;98487.28;6272960;22;20003;-90
2022/04/08 08:27:37;;;;;;;5.07;2.72;;;;;;;19.69;32.83;98527.97;6273755;22;20004;-90
2022/04/08 08:30:03;;;;;;;3.22;1.90;;;;;;;20.12;32.62;98585.75;6273603;22;20010;-90
2022/04/08 08:32:29;;;;;;;3.28;1.73;;;;;;;19.49;32.42;98498.41;6273934;22;20010;-87
2022/04/08 08:34:54;;;;;;;5.32;2.05;;;;;;;19.42;31.98;98445.09;6273518;22;19996;-87
2022/04/08 08:37:19;;;;;;;3.22;2.08;;;;;;;20.33;32.03;98604.56;6275017;22;19996;-89
2022/04/08 08:39:45;;;;;;;3.95;1.90;;;;;;;19.85;31.72;98515.44;6273529;22;20023;-90
2022/04/08 08:42:11;;;;;;;3.45;2.15;;;;;;;20.02;31.72;98515.22;6299660;22;20073;-89
2022/04/08 08:44:37;;;;;;;6.85;2.47;;;;;;;20.20;31.36;98528.16;6275028;22;20019;-90
2022/04/08 08:47:04;;;;;;;4.57;2.20;;;;;;;20.69;31.05;98590.19;6274430;22;20035;-87
2022/04/08 08:49:31;;;;;;;6.03;2.28;;;;;;;21.00;31.11;98606.34;6273705;22;20362;-87
2022/04/08 08:51:58;;;;;;;5.03;2.80;;;;;;;21.14;30.74;98610.09;6273024;22;20366;-87
2022/04/08 08:54:24;;;;;;;4.88;2.30;;;;;;;21.05;30.47;98582.19;6273435;22;19999;-87
2022/04/08 08:56:49;;;;;;;2.72;1.92;;;;;;;21.07;30.00;98580.84;6273624;22;20022;-90
2022/04/08 08:59:15;;;;;;;4.55;2.75;;;;;;;21.61;29.50;98635.88;6273897;22;20499;-90
2022/04/08 09:01:41;;;;;;;3.15;2.70;;;;;;;21.33;29.52;98565.53;6273495;22;20016;-88
2022/04/08 09:04:06;;;;;;;4.15;2.65;;;;;;;21.43;29.13;98553.97;6274151;22;20004;-88
2022/04/08 09:06:41;;;;;;;3.90;2.28;;;;;;;21.68;27.65;98553.91;6274897;22;20357;-88
2022/04/08 09:09:07;;;;;;;3.28;1.85;;;;;;;21.87;28.10;98568.34;6275871;22;20006;-88
2022/04/08 09:11:32;;;;;;;3.55;2.40;;;;;;;22.46;27.93;98655.50;6276702;22;20027;-87
2022/04/08 09:14:03;;;;;;;3.40;2.65;;;;;;;22.56;27.32;98636.63;6273656;22;20008;-88
2022/04/08 09:16:29;;;;;;;3.78;2.80;;;;;;;21.99;27.54;98527.69;6276327;22;19995;-88
2022/04/08 09:18:55;;;;;;;3.95;2.03;;;;;;;22.24;26.81;98539.41;6273726;22;19996;-88
2022/04/08 09:21:25;;;;;;;4.25;2.63;;;;;;;22.91;26.94;98632.91;6302401;22;20007;-88
2022/04/08 09:23:51;;;;;;;3.83;2.17;;;;;;;22.72;27.05;98556.59;6275027;22;20000;-88
2022/04/08 09:26:17;;;;;;;2.70;2.05;;;;;;;23.24;26.49;98615.16;6274318;22;20073;-88
2022/04/08 09:28:43;;;;;;;2.83;1.85;;;;;;;22.88;26.02;98536.56;6276619;22;20042;-89
2022/04/08 09:31:19;;;;;;;3.70;2.03;;;;;;;22.94;25.72;98515.78;6273505;22;20003;-88
2022/04/08 09:33:50;;;;;;;4.05;2.70;;;;;;;23.63;24.67;98604.31;6298940;22;20016;-88
2022/04/08 09:36:30;;;;;;;3.92;2.03;;;;;;;23.86;24.88;98618.91;6274619;22;19992;-90
2022/04/08 09:38:55;;;;;;;6.82;4.03;;;;;;;23.42;24.45;98557.88;6273691;22;20460;-89
2022/04/08 09:41:23;;;;;;;4.60;2.00;;;;;;;23.65;24.38;98566.28;6272730;22;20004;-90
2022/04/08 09:43:51;;;;;;;2.88;1.55;;;;;;;23.39;24.04;98484.94;6273965;22;20007;-88
2022/04/08 09:46:18;;;;;;;4.05;1.67;;;;;;;24.44;23.87;98632.22;6274211;22;20003;-87
2022/04/08 09:48:44;;;;;;;3.00;1.90;;;;;;;24.61;23.75;98631.75;6274571;22;20011;-90
2022/04/08 09:51:15;;;;;;;2.72;1.70;;;;;;;24.31;23.31;98562.81;6276169;22;19999;-89
2022/04/08 09:53:41;;;;;;;1.90;1.60;;;;;;;24.80;22.71;98620.94;6271234;22;20003;-89
2022/04/08 09:56:12;;;;;;;1.75;1.30;;;;;;;24.53;22.31;98548.75;6272921;22;20010;-89
2022/04/08 09:58:40;;;;;;;2.90;1.87;;;;;;;24.14;22.34;98525.53;6273110;22;20014;-89
2022/04/08 10:01:07;;;;;;;1.65;1.52;;;;;;;24.90;22.80;98628.91;6273136;22;20349;-87
2022/04/08 10:03:33;;;;;;;3.20;1.70;;;;;;;24.46;23.09;98556.38;6273514;22;20015;-89
2022/04/08 10:06:00;;;;;;;2.47;1.30;;;;;;;24.35;22.93;98544.94;6273756;22;20003;-89
2022/04/08 10:08:25;;;;;;;6.30;2.00;;;;;;;24.25;22.94;98545.88;6273449;22;20392;-87
2022/04/08 10:11:03;;;;;;;2.50;1.90;;;;;;;23.76;22.91;98497.69;6273880;22;20071;-87
2022/04/08 10:13:43;;;;;;;3.20;1.70;;;;;;;24.80;23.11;98631.75;6274018;22;20010;-87
2022/04/08 10:16:18;;;;;;;1.70;1.52;;;;;;;24.94;23.17;98635.31;6274586;22;20437;-87
2022/04/08 10:18:45;;;;;;;2.22;1.25;;;;;;;25.19;22.95;98640.34;6276781;22;20019;-88
2022/04/08 10:21:11;;;;;;;2.60;2.00;;;;;;;25.44;22.47;98641.81;6276781;22;20426;-87
2022/04/08 10:23:52;;;;;;;2.88;1.90;;;;;;;25.31;21.89;98567.75;6274443;22;20054;-86
2022/04/08 10:26:24;;;;;;;2.30;1.90;;;;;;;25.90;22.26;98652.63;6274907;22;20015;-87
2022/04/08 10:28:51;;;;;;;2.67;1.92;;;;;;;25.52;21.87;98560.06;6274651;22;20010;-88
2022/04/08 10:31:23;;;;;;;1.70;1.40;;;;;;;26.14;21.33;98636.22;6274641;22;20000;-88
2022/04/08 10:34:00;;;;;;;2.95;1.50;;;;;;;25.68;20.25;98530.03;6272321;22;20000;-86
2022/04/08 10:36:32;;;;;;;2.53;1.40;;;;;;;25.84;20.63;98525.91;6272827;22;19991;-86
2022/04/08 10:39:18;;;;;;;3.83;2.08;;;;;;;26.81;19.75;98636.44;6272451;22;20015;-87
2022/04/08 10:41:58;;;;;;;3.85;1.40;;;;;;;26.17;19.71;98513.84;6273540;22;20031;-86
2022/04/08 10:44:39;;;;;;;3.55;3.00;;;;;;;27.00;18.95;98633.56;6271985;22;20003;-87
2022/04/08 10:47:20;;;;;;;2.58;1.65;;;;;;;26.24;19.74;98519.66;6272408;22;20007;-88
2022/04/08 10:50:01;;;;;;;3.00;1.13;;;;;;;26.96;18.69;98642.59;6272513;22;20083;-88
2022/04/08 10:52:28;;;;;;;1.90;1.35;;;;;;;26.33;18.50;98538.69;6273827;22;20000;-87
2022/04/08 10:55:06;;;;;;;2.70;1.10;;;;;;;27.08;17.69;98629.31;6272506;22;20056;-88
2022/04/08 10:57:39;;;;;;;3.90;1.02;;;;;;;27.22;17.66;98630.06;6274518;22;19995;-86
2022/04/08 11:00:08;;;;;;;1.23;1.13;;;;;;;27.22;18.07;98619.22;6273076;22;20000;-88
2022/04/08 11:02:39;;;;;;;1.20;1.10;;;;;;;26.66;17.94;98523.03;6271686;22;20024;-86
2022/04/08 11:05:06;;;;;;;2.08;1.52;;;;;;;27.40;17.61;98637.19;6273633;22;20061;-87
2022/04/08 11:07:32;;;;;;;3.83;1.50;;;;;;;27.31;17.74;98639.03;6273053;22;20497;-86
2022/04/08 11:09:58;;;;;;;2.17;1.58;;;;;;;26.93;17.70;98530.22;6273819;22;19999;-88
2022/04/08 11:12:25;;;;;;;6.28;3.08;;;;;;;27.38;17.99;98596.03;6272939;22;20082;-87
2022/04/08 11:14:54;;;;;;;2.33;1.52;;;;;;;26.73;17.94;98506.34;6273059;22;19995;-86
2022/04/08 11:17:22;;;;;;;3.38;1.52;;;;;;;26.90;17.91;98492.94;6271647;22;20452;-87
2022/04/08 11:19:51;;;;;;;2.53;1.73;;;;;;;27.50;18.36;98577.28;6272331;22;20004;-86
2022/04/08 11:22:16;;;;;;;3.00;2.33;;;;;;;28.05;18.85;98628.41;6274849;22;20162;-87
2022/04/08 11:24:42;;;;;;;3.38;2.25;;;;;;;28.05;18.55;98614.84;6273190;22;20433;-87
2022/04/08 11:27:10;;;;;;;2.97;1.65;;;;;;;27.95;18.22;98587.22;6271075;22;20397;-86
2022/04/08 11:29:36;;;;;;;2.83;1.45;;;;;;;28.33;17.68;98623.59;6272981;22;20003;-86
2022/04/08 11:32:08;;;;;;;2.45;1.70;;;;;;;27.69;17.88;98563.50;6271918;22;20007;-86